Time;durP1;ratioP1;P1;durP2;ratioP2;P2;SDS_P1;SDS_P2;PMS_P1;PMS_P2;Temp;Humidity;BMP_temperature;BMP_pressure;BME280_temperature;BME280_humidity;BME280_pressure;Samples;Min_cycle;Max_cycle;Signal;HPM_P1;HPM_P2
2023/06/19 05:37:16;;;;;;;;;25.00;22.00;;;;;18.95;77.22;100964.97;5132280;23;45693;-72
2023/06/19 05:39:41;;;;;;;;;21.33;19.33;;;;;18.94;77.07;100952.47;4955395;28;45649;-74
2023/06/19 05:42:07;;;;;;;;;21.00;18.33;;;;;18.99;76.78;100952.44;4938472;28;45338;-72
2023/06/19 05:44:32;;;;;;;;;23.67;20.33;;;;;19.12;76.66;100964.81;4942258;28;45318;-74
2023/06/19 05:46:58;;;;;;;;;16.00;13.33;;;;;19.14;76.72;100960.34;4939195;28;45373;-72
2023/06/19 05:49:23;;;;;;;;;25.00;19.00;;;;;19.19;76.92;100939.75;4941466;28;45330;-72
2023/06/19 05:51:48;;;;;;;;;21.67;19.33;;;;;19.31;77.12;100948.59;4933190;28;47813;-72
2023/06/19 05:54:14;;;;;;;;;20.33;18.33;;;;;19.42;75.90;100949.38;4948362;28;45456;-72
2023/06/19 05:56:39;;;;;;;;;25.33;19.00;;;;;19.47;76.30;100942.19;4937461;28;45400;-71
2023/06/19 05:59:05;;;;;;;;;18.00;18.00;;;;;19.60;76.34;100943.81;4950978;28;45269;-72
2023/06/19 06:01:30;;;;;;;;;17.67;17.33;;;;;19.66;74.28;100937.53;4938435;28;45516;-70
2023/06/19 06:03:56;;;;;;;;;25.00;21.33;;;;;19.75;75.38;100942.81;4952090;28;45345;-71
2023/06/19 06:06:25;;;;;;;;;24.00;20.33;;;;;19.77;75.70;100935.63;4942245;28;45457;-71
2023/06/19 06:08:51;;;;;;;;;21.00;19.00;;;;;19.80;74.57;100932.03;4956496;28;45345;-73
2023/06/19 06:11:16;;;;;;;;;17.00;15.00;;;;;19.87;75.24;100934.63;4945684;28;45413;-73
2023/06/19 06:13:42;;;;;;;;;21.67;20.33;;;;;19.90;74.49;100933.69;4947033;28;45219;-73
2023/06/19 06:16:07;;;;;;;;;18.33;18.00;;;;;20.07;74.46;100963.00;4944410;28;45167;-73
2023/06/19 06:18:32;;;;;;;;;18.33;16.67;;;;;20.04;73.96;100942.47;4947190;28;46131;-73
2023/06/19 06:20:59;;;;;;;;;22.33;20.67;;;;;20.18;73.19;100957.50;4943170;28;45457;-73
2023/06/19 06:23:24;;;;;;;;;22.67;19.33;;;;;20.17;73.80;100947.69;4942815;28;45464;-73
2023/06/19 06:25:49;;;;;;;;;21.00;20.00;;;;;20.25;73.19;100968.16;4944119;28;45428;-74
2023/06/19 06:28:15;;;;;;;;;23.33;20.00;;;;;20.31;73.21;100961.81;4943430;28;45486;-72
2023/06/19 06:30:40;;;;;;;;;20.67;20.33;;;;;20.42;72.71;100964.38;4943915;28;45447;-71
2023/06/19 06:33:05;;;;;;;;;19.00;18.67;;;;;20.55;73.23;100968.66;4944470;28;45353;-73
2023/06/19 06:35:31;;;;;;;;;21.67;18.67;;;;;20.76;72.40;100964.81;4954112;28;45380;-74
2023/06/19 06:37:56;;;;;;;;;19.33;18.33;;;;;20.95;71.14;100954.66;4954850;28;47360;-74
2023/06/19 06:40:22;;;;;;;;;21.67;21.33;;;;;21.11;71.71;100968.72;4943980;28;45325;-74
2023/06/19 06:42:47;;;;;;;;;19.33;17.00;;;;;21.19;70.48;100980.25;4940820;28;45465;-71
2023/06/19 06:45:13;;;;;;;;;19.00;17.00;;;;;21.30;70.12;100983.63;4946990;28;45209;-72
2023/06/19 06:47:39;;;;;;;;;16.67;15.00;;;;;21.42;70.24;100990.63;4944840;28;46459;-72
2023/06/19 06:50:06;;;;;;;;;16.67;16.00;;;;;21.58;69.35;100999.31;4951079;28;45289;-73
2023/06/19 06:52:32;;;;;;;;;20.33;19.00;;;;;21.64;68.95;100993.81;4939256;28;45250;-72
2023/06/19 06:54:57;;;;;;;;;20.00;18.67;;;;;21.66;69.09;100984.81;4952400;28;45599;-73
2023/06/19 06:57:22;;;;;;;;;24.67;21.33;;;;;21.79;68.30;101001.63;4942497;28;46241;-72
2023/06/19 06:59:48;;;;;;;;;21.00;18.33;;;;;21.82;68.40;100998.00;4956894;28;51166;-72
2023/06/19 07:02:13;;;;;;;;;14.67;14.67;;;;;21.88;67.77;101006.84;4944761;28;45455;-72
2023/06/19 07:04:38;;;;;;;;;17.67;17.67;;;;;21.98;68.61;101002.16;4949956;28;45554;-72
2023/06/19 07:07:05;;;;;;;;;17.33;16.67;;;;;22.11;67.17;101013.56;4943362;28;51339;-73
2023/06/19 07:09:31;;;;;;;;;16.33;15.33;;;;;22.25;66.97;101022.28;4944666;28;45341;-76
2023/06/19 07:11:56;;;;;;;;;17.00;16.33;;;;;22.31;65.88;101022.16;4941447;28;45293;-70
2023/06/19 07:14:22;;;;;;;;;17.33;15.33;;;;;22.36;65.77;101013.13;4948972;28;45922;-71
2023/06/19 07:16:47;;;;;;;;;16.00;16.00;;;;;22.44;65.52;101006.63;4937221;28;46034;-70
2023/06/19 07:19:13;;;;;;;;;16.00;16.00;;;;;22.58;65.83;101010.84;4950780;28;45238;-71
2023/06/19 07:21:39;;;;;;;;;17.67;15.67;;;;;22.62;65.40;100989.16;4942710;28;45468;-70
2023/06/19 07:24:05;;;;;;;;;19.00;17.00;;;;;22.81;64.66;100999.53;4950532;28;45274;-70
2023/06/19 07:26:31;;;;;;;;;18.00;16.00;;;;;22.88;64.32;100995.78;4941750;28;45436;-71
2023/06/19 07:28:57;;;;;;;;;17.33;16.00;;;;;22.86;64.08;100981.47;4952170;28;45233;-70
2023/06/19 07:31:22;;;;;;;;;18.00;16.00;;;;;22.95;64.70;100986.63;4943976;28;45315;-70
2023/06/19 07:33:47;;;;;;;;;16.33;14.33;;;;;23.05;64.62;100988.22;4952514;28;45451;-70
2023/06/19 07:36:14;;;;;;;;;19.00;16.00;;;;;23.09;63.79;100970.16;4941789;28;46232;-70
2023/06/19 07:38:40;;;;;;;;;23.00;17.67;;;;;23.27;63.06;100980.47;4957370;28;45405;-70
2023/06/19 07:41:07;;;;;;;;;17.33;17.33;;;;;23.40;62.97;100984.63;4948180;28;45508;-70
2023/06/19 07:43:32;;;;;;;;;17.67;16.67;;;;;23.50;62.67;100982.59;4949928;28;46117;-71
2023/06/19 07:45:58;;;;;;;;;16.00;16.00;;;;;23.67;62.53;100982.13;4944114;28;45597;-71
2023/06/19 07:48:23;;;;;;;;;15.00;14.33;;;;;23.77;63.11;100967.47;4954868;28;48961;-71
2023/06/19 07:50:48;;;;;;;;;13.00;12.67;;;;;24.00;61.86;100983.06;4946169;28;45973;-70
2023/06/19 07:53:14;;;;;;;;;20.00;17.00;;;;;24.06;59.91;100977.47;4948141;28;45352;-70
2023/06/19 07:55:39;;;;;;;;;15.33;14.67;;;;;24.22;61.53;100995.94;4948335;28;46096;-70
2023/06/19 07:58:04;;;;;;;;;15.33;15.33;;;;;24.24;59.48;100986.84;4948617;28;45237;-70
2023/06/19 08:00:30;;;;;;;;;19.67;15.00;;;;;24.26;59.50;100982.28;4950725;28;45168;-71
2023/06/19 08:02:55;;;;;;;;;18.67;17.67;;;;;24.16;58.48;100977.19;4949996;28;45163;-71
2023/06/19 08:05:21;;;;;;;;;20.00;15.33;;;;;24.18;59.64;100984.34;4951143;28;46348;-71
2023/06/19 08:07:47;;;;;;;;;20.00;16.00;;;;;24.24;60.97;100989.53;4938810;28;45134;-71
2023/06/19 08:10:12;;;;;;;;;20.67;19.67;;;;;24.13;58.83;100973.66;4953714;28;45344;-71
2023/06/19 08:12:37;;;;;;;;;21.33;16.33;;;;;24.23;58.83;100981.50;4941444;28;45737;-71
2023/06/19 08:15:03;;;;;;;;;18.33;17.67;;;;;24.38;59.27;100985.56;4949607;28;45245;-70
2023/06/19 08:17:28;;;;;;;;;21.00;19.33;;;;;24.45;58.75;100990.78;4939799;28;45396;-70
2023/06/19 08:19:54;;;;;;;;;21.33;19.00;;;;;24.53;57.97;100994.13;4950392;28;45308;-70
2023/06/19 08:22:19;;;;;;;;;18.33;16.00;;;;;24.71;60.60;100995.38;4938482;28;50892;-71
2023/06/19 08:24:44;;;;;;;;;17.67;16.33;;;;;24.77;57.60;100991.59;4949683;28;55437;-71
2023/06/19 08:27:09;;;;;;;;;18.00;17.00;;;;;24.79;57.19;100985.22;4940933;28;45441;-71
2023/06/19 08:29:35;;;;;;;;;19.67;18.00;;;;;24.86;57.48;100975.06;4949964;28;45456;-70
2023/06/19 08:32:01;;;;;;;;;18.33;18.33;;;;;25.00;57.39;100975.50;4943445;28;45310;-70
2023/06/19 08:34:27;;;;;;;;;18.33;17.33;;;;;25.04;56.56;100965.50;4949794;28;45377;-71
2023/06/19 08:36:52;;;;;;;;;21.67;18.67;;;;;25.27;57.56;100994.50;4945066;28;45431;-71
2023/06/19 08:39:20;;;;;;;;;19.33;19.33;;;;;25.39;56.01;100987.78;4955646;28;45366;-71
2023/06/19 08:41:45;;;;;;;;;17.67;17.00;;;;;25.55;56.03;100989.03;4948240;28;45354;-71
2023/06/19 08:44:10;;;;;;;;;13.25;10.50;;;;;25.64;54.34;100975.16;4948064;28;47080;-71
2023/06/19 08:46:40;;;;;;;;;14.25;13.75;;;;;25.73;54.71;100978.50;4936360;28;45499;-71
2023/06/19 08:49:06;;;;;;;;;14.25;12.50;;;;;25.92;52.35;100985.03;4949432;28;45320;-70
2023/06/19 08:51:32;;;;;;;;;10.00;10.00;;;;;26.14;52.75;100997.81;4945824;28;45273;-70
2023/06/19 08:54:03;;;;;;;;;12.75;12.00;;;;;26.25;55.52;100996.47;4949298;28;46105;-71
2023/06/19 08:56:28;;;;;;;;;14.50;14.00;;;;;26.22;50.71;100991.16;4947856;28;45335;-71
2023/06/19 08:58:54;;;;;;;;;14.00;12.50;;;;;26.22;51.25;100991.16;4949714;28;45289;-71
2023/06/19 09:01:19;;;;;;;;;17.25;15.00;;;;;26.39;55.06;100992.34;4949902;28;45624;-71
2023/06/19 09:03:51;;;;;;;;;13.75;12.25;;;;;26.61;51.65;100987.91;4949541;28;45256;-71
2023/06/19 09:06:18;;;;;;;;;10.25;10.25;;;;;27.04;51.77;100980.72;4929516;28;45414;-71
2023/06/19 09:08:43;;;;;;;;;16.00;15.25;;;;;27.48;47.89;100979.84;4939984;28;45404;-70
2023/06/19 09:11:09;;;;;;;;;9.75;9.75;;;;;27.71;48.52;100966.13;4948192;28;45436;-71
2023/06/19 09:13:34;;;;;;;;;11.00;10.00;;;;;27.80;51.65;100959.44;4940643;28;45859;-70
2023/06/19 09:16:07;;;;;;;;;8.50;8.50;;;;;28.00;49.25;100967.56;4945298;28;45661;-70
2023/06/19 09:18:47;;;;;;;;;7.00;6.25;;;;;28.19;47.70;100972.16;4947162;28;45373;-70
2023/06/19 09:21:21;;;;;;;;;8.00;8.00;;;;;28.28;50.02;100969.00;4942639;28;45942;-70
2023/06/19 09:23:47;;;;;;;;;7.25;7.00;;;;;28.25;46.31;100961.00;4948628;28;45423;-71
2023/06/19 09:26:16;;;;;;;;;8.50;8.00;;;;;28.15;50.33;100959.66;4939573;28;45403;-70
2023/06/19 09:28:45;;;;;;;;;9.25;8.25;;;;;27.93;47.91;100957.94;4949278;28;45308;-73
2023/06/19 09:31:10;;;;;;;;;8.50;8.50;;;;;27.81;47.56;100944.88;4940617;28;46048;-70
2023/06/19 09:33:37;;;;;;;;;7.00;6.75;;;;;28.23;49.82;100965.63;4951124;28;45369;-71
2023/06/19 09:36:05;;;;;;;;;8.60;6.60;;;;;28.49;46.47;100964.44;4943706;28;45556;-71
2023/06/19 09:38:32;;;;;;;;;6.50;6.50;;;;;28.81;45.05;100946.53;4955756;28;45272;-71
2023/06/19 09:41:01;;;;;;;;;7.75;7.75;;;;;29.11;47.98;100946.00;4944832;28;45548;-72
2023/06/19 09:43:43;;;;;;;;;9.80;9.20;;;;;29.44;45.87;100965.19;4952602;28;45984;-71
2023/06/19 09:46:10;;;;;;;;;10.20;9.00;;;;;29.65;42.84;100953.19;4953035;28;45401;-71
2023/06/19 09:48:42;;;;;;;;;7.80;7.40;;;;;29.82;46.82;100963.19;4954647;28;45334;-71
2023/06/19 09:51:17;;;;;;;;;8.50;8.00;;;;;29.75;42.43;100944.53;4941877;28;45498;-72
2023/06/19 09:53:45;;;;;;;;;7.80;7.80;;;;;29.91;41.57;100950.03;4947878;28;47216;-71
2023/06/19 09:56:12;;;;;;;;;10.80;10.40;;;;;30.07;43.63;100956.41;4946330;28;45702;-71
2023/06/19 09:58:40;;;;;;;;;12.25;11.00;;;;;30.06;41.95;100943.75;4939338;28;45332;-72
2023/06/19 10:01:07;;;;;;;;;15.20;9.80;;;;;30.08;43.67;100961.78;4941057;28;45512;-72
2023/06/19 10:03:33;;;;;;;;;7.00;7.00;;;;;30.11;40.67;100950.72;4947694;28;46336;-71
2023/06/19 10:06:00;;;;;;;;;9.40;7.80;;;;;30.19;40.93;100950.25;4946354;28;45484;-72
2023/06/19 10:08:31;;;;;;;;;9.20;7.80;;;;;30.28;44.09;100948.94;4937990;28;45473;-71
2023/06/19 10:10:57;;;;;;;;;11.40;10.00;;;;;30.20;39.45;100943.88;4948605;28;45222;-71
2023/06/19 10:13:31;;;;;;;;;8.20;8.00;;;;;29.98;41.92;100927.81;4939884;28;47751;-71
2023/06/19 10:15:58;;;;;;;;;8.40;8.40;;;;;29.98;40.44;100932.38;4945573;28;45325;-71
2023/06/19 10:18:25;;;;;;;;;9.20;8.40;;;;;30.21;44.36;100945.63;4943336;28;45495;-73
2023/06/19 10:20:50;;;;;;;;;9.60;8.00;;;;;30.25;43.05;100941.81;4927806;28;45468;-72
2023/06/19 10:23:18;;;;;;;;;9.50;7.50;;;;;30.33;41.94;100955.91;4942088;28;45440;-71
2023/06/19 10:25:45;;;;;;;;;7.60;6.20;;;;;30.63;41.35;100949.66;4946315;28;45400;-71
2023/06/19 10:28:18;;;;;;;;;10.00;7.40;;;;;30.85;40.11;100941.16;4945410;28;45269;-72
2023/06/19 10:30:44;;;;;;;;;7.20;7.20;;;;;31.02;42.95;100945.63;4944798;28;46271;-72
2023/06/19 10:33:09;;;;;;;;;7.25;5.25;;;;;31.14;39.29;100935.81;4937281;28;45452;-71
2023/06/19 10:35:42;;;;;;;;;5.25;3.00;;;;;31.18;38.48;100926.47;4948453;28;45390;-72
2023/06/19 10:38:08;;;;;;;;;7.20;5.00;;;;;31.36;38.95;100922.66;4956602;28;45527;-71
2023/06/19 10:40:36;;;;;;;;;5.40;4.60;;;;;31.63;40.87;100930.16;4947250;28;46030;-72
2023/06/19 10:43:01;;;;;;;;;5.40;5.40;;;;;31.78;40.09;100926.44;4942768;28;46345;-72
2023/06/19 10:45:28;;;;;;;;;5.50;5.25;;;;;32.03;37.90;100906.69;4944624;28;45255;-73
2023/06/19 10:47:54;;;;;;;;;7.00;7.00;;;;;32.28;37.05;100925.13;4941553;28;45254;-72
2023/06/19 10:50:20;;;;;;;;;5.80;5.80;;;;;32.49;39.61;100927.47;4949322;28;45506;-73
2023/06/19 10:52:47;;;;;;;;;7.25;6.50;;;;;32.47;38.47;100913.91;4939382;28;45444;-70
2023/06/19 10:55:13;;;;;;;;;5.80;5.80;;;;;32.53;37.89;100931.78;4953287;28;45539;-72
2023/06/19 10:57:44;;;;;;;;;7.40;7.40;;;;;32.36;38.15;100908.22;4943881;28;45291;-72
2023/06/19 11:00:14;;;;;;;;;6.80;6.80;;;;;32.48;36.94;100922.97;4955286;28;45529;-72
2023/06/19 11:02:43;;;;;;;;;6.60;5.60;;;;;32.54;36.86;100917.97;4946756;28;45352;-72
2023/06/19 11:05:10;;;;;;;;;7.20;6.60;;;;;32.47;36.51;100924.84;4953451;28;45889;-72
2023/06/19 11:07:35;;;;;;;;;9.40;8.40;;;;;32.58;35.63;100931.50;4949046;28;45402;-70
2023/06/19 11:10:03;;;;;;;;;9.75;7.25;;;;;32.78;38.14;100916.47;4955056;28;45290;-70
2023/06/19 11:12:28;;;;;;;;;7.00;7.00;;;;;32.70;37.97;100898.69;4947603;28;45428;-70
2023/06/19 11:14:54;;;;;;;;;7.75;6.75;;;;;32.66;33.60;100899.88;4957017;28;45218;-71
2023/06/19 11:17:21;;;;;;;;;7.25;7.00;;;;;32.61;32.78;100901.16;4941626;28;45188;-71
2023/06/19 11:19:47;;;;;;;;;9.20;7.60;;;;;32.93;37.30;100904.47;4951079;28;45476;-71
2023/06/19 11:22:12;;;;;;;;;8.50;8.50;;;;;33.03;35.57;100910.25;4936012;28;45259;-73
2023/06/19 11:24:48;;;;;;;;;9.25;8.00;;;;;33.22;35.75;100913.47;4943502;28;45521;-72
2023/06/19 11:27:18;;;;;;;;;8.00;6.60;;;;;33.21;36.65;100893.41;4936183;28;45385;-73
2023/06/19 11:29:43;;;;;;;;;8.00;7.00;;;;;33.27;36.45;100907.66;4951421;28;45467;-72
2023/06/19 11:32:12;;;;;;;;;8.50;8.00;;;;;33.18;35.71;100896.34;4950101;28;56058;-72
2023/06/19 11:34:38;;;;;;;;;8.80;7.60;;;;;33.07;35.06;100890.75;4951036;28;45442;-72
2023/06/19 11:37:23;;;;;;;;;8.00;8.00;;;;;33.01;36.25;100898.50;4949617;28;45692;-72
2023/06/19 11:39:52;;;;;;;;;9.80;8.40;;;;;32.83;36.92;100898.75;4953219;28;45318;-72
2023/06/19 11:42:17;;;;;;;;;8.00;8.00;;;;;32.70;35.71;100893.22;4942504;28;45334;-71
2023/06/19 11:44:55;;;;;;;;;4.50;4.50;;;;;32.41;35.35;100888.78;4951733;28;45327;-71
2023/06/19 11:47:21;;;;;;;;;7.60;7.00;;;;;32.21;35.56;100898.25;4939812;28;45477;-71
2023/06/19 11:49:50;;;;;;;;;7.25;7.25;;;;;31.80;34.99;100891.69;4945188;28;45375;-71
2023/06/19 11:52:16;;;;;;;;;11.20;11.00;;;;;31.71;36.31;100896.88;4939245;28;46096;-71
2023/06/19 11:54:41;;;;;;;;;10.75;9.00;;;;;31.66;36.08;100889.84;4944728;28;45373;-71
2023/06/19 11:57:06;;;;;;;;;6.50;6.50;;;;;31.55;36.98;100889.63;4938884;28;45393;-71
2023/06/19 11:59:32;;;;;;;;;7.75;6.75;;;;;31.60;36.86;100892.09;4945020;28;45617;-71
2023/06/19 12:01:59;;;;;;;;;8.25;7.00;;;;;31.55;36.29;100895.09;4939569;28;47437;-70
2023/06/19 12:04:24;;;;;;;;;7.80;7.80;;;;;31.43;35.98;100884.94;4944136;28;45505;-71
2023/06/19 12:06:50;;;;;;;;;7.00;7.00;;;;;31.29;36.96;100883.00;4940648;28;45435;-71
2023/06/19 12:09:15;;;;;;;;;6.00;6.00;;;;;31.14;37.91;100882.06;4944599;28;45475;-71
2023/06/19 12:11:41;;;;;;;;;6.25;6.25;;;;;30.96;36.97;100872.28;4939829;28;46237;-71
2023/06/19 12:14:06;;;;;;;;;8.75;7.50;;;;;30.90;38.52;100889.03;4944934;28;45274;-71
2023/06/19 12:16:31;;;;;;;;;7.50;7.50;;;;;30.67;38.51;100868.47;4942698;28;45324;-71
2023/06/19 12:18:57;;;;;;;;;9.00;7.25;;;;;30.46;37.58;100857.00;4944717;28;45153;-71
2023/06/19 12:21:22;;;;;;;;;6.25;6.25;;;;;30.45;38.09;100869.75;4941690;28;45511;-71
2023/06/19 12:23:48;;;;;;;;;7.00;7.00;;;;;30.41;38.55;100868.16;4941666;28;45262;-71
2023/06/19 12:26:13;;;;;;;;;10.50;6.75;;;;;30.33;39.19;100871.34;4943125;28;45413;-71
2023/06/19 12:28:38;;;;;;;;;10.00;8.00;;;;;30.20;38.46;100874.81;4953203;28;46016;-71
2023/06/19 12:31:04;;;;;;;;;9.75;8.00;;;;;30.12;38.21;100880.69;4940577;28;45524;-71
2023/06/19 12:33:32;;;;;;;;;7.00;7.00;;;;;30.04;38.79;100881.13;4942186;28;45305;-71
2023/06/19 12:35:58;;;;;;;;;6.40;6.00;;;;;29.85;39.22;100867.63;4943219;28;45483;-71
2023/06/19 12:38:23;;;;;;;;;7.25;6.00;;;;;29.67;38.89;100861.34;4952008;28;45368;-71
2023/06/19 12:40:49;;;;;;;;;6.50;6.50;;;;;29.73;39.37;100879.22;4941469;28;46877;-70
2023/06/19 12:43:14;;;;;;;;;10.50;7.75;;;;;29.52;39.72;100888.50;4938048;28;45242;-70
2023/06/19 12:45:41;;;;;;;;;8.50;7.25;;;;;29.32;40.02;100875.94;4931286;28;45280;-70
2023/06/19 12:48:09;;;;;;;;;5.80;5.80;;;;;29.16;39.87;100868.59;4939015;28;45252;-70
2023/06/19 12:50:35;;;;;;;;;8.00;8.00;;;;;29.14;39.87;100866.91;4942510;28;46148;-70
2023/06/19 12:53:00;;;;;;;;;8.25;7.00;;;;;28.76;40.68;100801.69;4940294;28;45332;-72
2023/06/19 12:55:26;;;;;;;;;8.00;6.50;;;;;29.09;39.97;100861.69;4940426;28;45543;-70
2023/06/19 12:57:51;;;;;;;;;7.50;6.00;;;;;29.04;41.09;100854.72;4940865;28;45528;-72
2023/06/19 13:00:17;;;;;;;;;8.75;7.00;;;;;28.93;41.04;100850.69;4946225;28;46021;-72
2023/06/19 13:02:43;;;;;;;;;7.75;7.75;;;;;28.80;41.70;100843.25;4939948;28;45310;-72
2023/06/19 13:05:09;;;;;;;;;8.25;8.25;;;;;28.72;41.18;100841.78;4947120;28;45444;-72
2023/06/19 13:07:34;;;;;;;;;7.20;6.60;;;;;28.68;41.83;100847.44;4935857;28;45539;-73
2023/06/19 13:09:59;;;;;;;;;10.75;6.75;;;;;28.53;41.89;100838.22;4948162;28;45633;-72
2023/06/19 13:12:25;;;;;;;;;8.75;7.00;;;;;28.52;43.34;100844.63;4938076;28;46018;-69
2023/06/19 13:14:51;;;;;;;;;7.75;7.75;;;;;28.45;42.98;100843.16;4944081;28;45644;-69
2023/06/19 13:17:16;;;;;;;;;8.25;7.00;;;;;28.25;44.51;100830.50;4936615;28;45409;-69
2023/06/19 13:19:41;;;;;;;;;9.50;9.50;;;;;28.11;45.70;100828.44;4945210;28;45444;-68
2023/06/19 13:22:07;;;;;;;;;9.00;8.00;;;;;28.01;47.53;100840.75;4935679;28;45425;-69
2023/06/19 13:24:32;;;;;;;;;10.00;9.00;;;;;27.84;49.43;100833.34;4943308;28;45325;-70
2023/06/19 13:26:57;;;;;;;;;9.50;9.50;;;;;27.73;48.31;100841.09;4940889;28;45451;-68
2023/06/19 13:29:23;;;;;;;;;10.50;8.75;;;;;27.60;49.50;100838.97;4954956;28;48203;-69
2023/06/19 13:31:48;;;;;;;;;5.75;5.75;;;;;27.49;48.23;100835.84;4939574;28;45258;-69
2023/06/19 13:34:14;;;;;;;;;7.50;7.50;;;;;27.36;48.44;100832.81;4943392;28;45380;-69
2023/06/19 13:36:39;;;;;;;;;9.75;9.00;;;;;27.28;47.70;100839.53;4940087;28;45523;-69
2023/06/19 13:39:05;;;;;;;;;10.00;9.00;;;;;27.19;47.11;100844.41;4953416;28;48247;-68
2023/06/19 13:41:32;;;;;;;;;9.80;8.60;;;;;27.04;48.53;100842.34;4936679;28;45408;-68
2023/06/19 13:43:58;;;;;;;;;8.50;7.50;;;;;26.92;47.20;100838.34;4951026;28;45451;-68
2023/06/19 13:46:24;;;;;;;;;9.25;9.00;;;;;26.79;50.68;100842.50;4929206;28;45307;-70
2023/06/19 13:48:51;;;;;;;;;5.50;5.00;;;;;26.67;50.15;100840.34;4941172;28;45263;-70
2023/06/19 13:51:21;;;;;;;;;7.75;7.75;;;;;26.56;50.48;100835.34;4931459;28;45253;-69
2023/06/19 13:53:47;;;;;;;;;7.75;7.75;;;;;26.46;50.46;100842.06;4941025;28;45414;-73
2023/06/19 13:56:13;;;;;;;;;9.00;8.75;;;;;26.36;51.53;100836.13;4939885;28;45405;-70
2023/06/19 13:58:39;;;;;;;;;11.50;10.00;;;;;26.19;50.48;100807.00;4947808;28;45392;-70
2023/06/19 14:01:05;;;;;;;;;9.25;9.25;;;;;26.28;49.97;100822.03;4948807;28;45348;-70
2023/06/19 14:03:31;;;;;;;;;9.25;9.25;;;;;26.24;51.16;100817.66;4940142;28;45338;-68
2023/06/19 14:05:56;;;;;;;;;8.50;8.50;;;;;26.29;50.68;100827.34;4946979;28;45436;-70
2023/06/19 14:08:21;;;;;;;;;12.25;10.25;;;;;26.25;51.74;100827.56;4942850;28;45384;-69
2023/06/19 14:10:46;;;;;;;;;10.25;8.75;;;;;26.21;52.07;100824.06;4948658;28;45420;-71
2023/06/19 14:13:12;;;;;;;;;9.00;9.00;;;;;26.15;51.53;100815.31;4940329;28;45349;-72
2023/06/19 14:15:37;;;;;;;;;9.25;8.00;;;;;26.15;51.11;100820.75;4948693;28;45394;-72
2023/06/19 14:18:03;;;;;;;;;11.25;10.00;;;;;26.14;51.00;100824.41;4939013;28;46547;-69
2023/06/19 14:20:28;;;;;;;;;13.25;11.00;;;;;25.93;51.01;100809.88;4945769;28;45174;-70
2023/06/19 14:22:53;;;;;;;;;8.50;8.25;;;;;25.94;50.75;100811.66;4940858;28;45303;-70
2023/06/19 14:25:18;;;;;;;;;11.25;9.75;;;;;25.95;50.79;100814.28;4946286;28;50662;-69
2023/06/19 14:27:44;;;;;;;;;8.50;8.50;;;;;25.81;51.83;100803.94;4941073;28;45535;-69
2023/06/19 14:30:10;;;;;;;;;9.50;8.00;;;;;25.88;51.40;100821.78;4943881;28;45324;-72
2023/06/19 14:32:36;;;;;;;;;9.00;7.00;;;;;25.70;49.95;100806.19;4942765;28;45478;-69
2023/06/19 14:35:03;;;;;;;;;9.75;7.75;;;;;25.69;51.47;100817.97;4944464;28;45468;-69
2023/06/19 14:37:28;;;;;;;;;11.25;10.25;;;;;25.64;51.54;100807.31;4943203;28;45328;-69
2023/06/19 14:39:54;;;;;;;;;14.75;14.75;;;;;25.70;52.10;100829.69;4955442;28;45333;-69
2023/06/19 14:42:20;;;;;;;;;10.75;10.50;;;;;25.65;53.08;100819.94;4935434;28;45555;-69
2023/06/19 14:44:45;;;;;;;;;14.00;13.00;;;;;25.71;51.89;100821.50;4943957;28;45396;-72
2023/06/19 14:47:11;;;;;;;;;15.25;13.00;;;;;25.75;53.25;100811.44;4935139;28;46350;-72
2023/06/19 14:49:37;;;;;;;;;12.00;11.00;;;;;25.82;52.20;100813.88;4943613;28;45221;-72
2023/06/19 14:52:03;;;;;;;;;15.75;14.00;;;;;25.93;52.57;100812.56;4938208;28;45239;-72
2023/06/19 14:54:28;;;;;;;;;10.75;10.75;;;;;26.00;51.01;100803.28;4943639;28;45439;-72
2023/06/19 14:56:53;;;;;;;;;12.25;11.75;;;;;26.00;52.29;100795.16;4936162;28;45320;-72
2023/06/19 14:59:19;;;;;;;;;12.25;10.25;;;;;26.04;51.96;100792.22;4943658;28;45355;-72
2023/06/19 15:01:44;;;;;;;;;8.00;8.00;;;;;26.15;51.39;100796.34;4937996;28;45400;-72
2023/06/19 15:04:10;;;;;;;;;9.75;8.00;;;;;26.23;51.27;100799.63;4943757;28;45490;-72
2023/06/19 15:06:35;;;;;;;;;10.50;10.50;;;;;26.27;51.30;100790.41;4937615;28;45508;-72
2023/06/19 15:09:00;;;;;;;;;7.50;7.50;;;;;26.27;51.34;100788.63;4943601;28;45404;-72
2023/06/19 15:11:26;;;;;;;;;8.75;8.75;;;;;26.38;50.45;100790.84;4937885;28;47731;-72
2023/06/19 15:13:51;;;;;;;;;10.25;10.25;;;;;26.39;50.32;100794.47;4943853;28;45556;-72
2023/06/19 15:16:19;;;;;;;;;12.00;11.00;;;;;26.42;50.25;100797.06;4938233;28;45412;-72
2023/06/19 15:18:45;;;;;;;;;9.25;9.25;;;;;26.38;49.74;100788.16;4943974;28;45293;-72
2023/06/19 15:21:10;;;;;;;;;11.00;9.25;;;;;26.47;50.40;100784.19;4939399;28;45551;-72
2023/06/19 15:23:35;;;;;;;;;10.50;10.50;;;;;26.46;50.94;100783.28;4940960;28;45338;-72
2023/06/19 15:26:01;;;;;;;;;10.75;10.75;;;;;26.41;49.92;100765.47;4940823;28;46039;-72
2023/06/19 15:28:27;;;;;;;;;13.75;13.75;;;;;26.48;49.62;100777.81;4941750;28;45338;-71
2023/06/19 15:30:52;;;;;;;;;14.00;13.00;;;;;26.46;50.57;100777.88;4941917;28;45280;-69
2023/06/19 15:33:17;;;;;;;;;14.25;12.25;;;;;26.46;50.05;100774.28;4942645;28;45419;-72
2023/06/19 15:35:43;;;;;;;;;14.75;14.75;;;;;26.46;50.03;100768.88;4941563;28;46474;-70
2023/06/19 15:38:08;;;;;;;;;13.25;12.00;;;;;26.34;51.30;100760.31;4948553;28;45281;-71
2023/06/19 15:40:34;;;;;;;;;13.75;13.75;;;;;26.38;50.35;100768.28;4946740;28;45396;-71
2023/06/19 15:42:59;;;;;;;;;11.00;11.00;;;;;26.30;50.18;100747.84;4935535;28;45651;-72
2023/06/19 15:45:24;;;;;;;;;14.25;12.25;;;;;26.36;51.04;100767.50;4930879;28;54078;-72
2023/06/19 15:47:50;;;;;;;;;14.25;14.25;;;;;26.34;50.83;100754.88;4938655;28;45449;-72
2023/06/19 15:50:16;;;;;;;;;16.00;16.00;;;;;26.43;51.64;100750.91;4942578;28;45423;-72
2023/06/19 15:52:41;;;;;;;;;13.25;13.25;;;;;26.48;50.88;100737.16;4936166;28;45372;-72
2023/06/19 15:55:07;;;;;;;;;14.75;13.75;;;;;26.52;50.31;100722.53;4943541;28;45303;-72
2023/06/19 15:57:32;;;;;;;;;15.00;13.00;;;;;26.53;50.40;100692.66;4936828;28;45334;-72
2023/06/19 15:59:58;;;;;;;;;17.75;15.00;;;;;26.78;49.53;100708.75;4943293;28;45436;-72
2023/06/19 16:02:23;;;;;;;;;14.75;14.00;;;;;26.93;49.15;100698.16;4936421;28;45332;-71
2023/06/19 16:04:48;;;;;;;;;17.50;16.50;;;;;26.97;49.25;100692.53;4942655;28;46032;-72
2023/06/19 16:07:14;;;;;;;;;15.25;13.75;;;;;27.02;49.34;100687.75;4936247;28;45350;-72
2023/06/19 16:09:42;;;;;;;;;17.25;16.75;;;;;27.14;48.75;100702.59;4947714;28;45251;-70
2023/06/19 16:12:07;;;;;;;;;14.00;13.75;;;;;27.18;49.28;100695.22;4934902;28;45529;-70
2023/06/19 16:14:33;;;;;;;;;18.50;18.50;;;;;27.23;48.77;100695.91;4939263;28;45506;-70
2023/06/19 16:16:58;;;;;;;;;17.00;16.00;;;;;27.31;48.91;100696.44;4936689;28;45500;-70
2023/06/19 16:19:24;;;;;;;;;16.50;16.50;;;;;27.34;49.19;100700.84;4942437;28;45286;-70
2023/06/19 16:21:49;;;;;;;;;15.25;13.50;;;;;27.34;48.91;100707.13;4935511;28;45559;-70
2023/06/19 16:24:14;;;;;;;;;16.75;15.25;;;;;27.23;49.37;100696.78;4938971;28;48343;-70
2023/06/19 16:26:40;;;;;;;;;15.75;14.25;;;;;27.20;49.65;100715.91;4938460;28;45433;-70
2023/06/19 16:29:05;;;;;;;;;12.00;12.00;;;;;27.09;49.35;100696.50;4940392;28;45361;-70
2023/06/19 16:31:31;;;;;;;;;15.00;15.00;;;;;27.14;49.38;100713.47;4939550;28;45602;-70
2023/06/19 16:33:56;;;;;;;;;14.25;13.00;;;;;27.12;49.07;100709.94;4941124;28;46751;-71
2023/06/19 16:36:22;;;;;;;;;21.50;20.25;;;;;27.02;48.90;100689.56;4937935;28;45411;-70
2023/06/19 16:38:48;;;;;;;;;27.75;23.25;;;;;27.15;49.04;100701.63;4947696;28;45333;-70
2023/06/19 16:41:13;;;;;;;;;25.00;24.67;;;;;27.15;48.96;100703.47;4940633;28;45668;-71
2023/06/19 16:43:39;;;;;;;;;18.50;16.75;;;;;27.17;49.60;100702.50;4935454;28;45327;-70
2023/06/19 16:46:04;;;;;;;;;20.25;15.00;;;;;27.23;48.58;100704.91;4951330;28;45345;-70
2023/06/19 16:48:30;;;;;;;;;11.50;11.25;;;;;27.30;48.93;100699.19;4939165;28;45396;-71